Time;durP1;ratioP1;P1;durP2;ratioP2;P2;SDS_P1;SDS_P2;PMS_P1;PMS_P2;Temp;Humidity;BMP_temperature;BMP_pressure;BME280_temperature;BME280_humidity;BME280_pressure;Samples;Min_cycle;Max_cycle;Signal;HPM_P1;HPM_P2
2022/11/03 00:00:24;;;;;;;11.83;3.93;;;9.30;99.90;;;;;;5087502;28;21039;-77
2022/11/03 00:02:50;;;;;;;10.57;2.93;;;8.90;99.90;;;;;;5100218;28;20229;-72
2022/11/03 00:08:03;;;;;;;16.73;4.93;;;7.90;99.90;;;;;;5088407;28;20190;-71
2022/11/03 00:10:29;;;;;;;12.10;3.60;;;9.50;99.90;;;;;;5087862;28;20178;-70
2022/11/03 00:12:55;;;;;;;7.90;3.67;;;9.80;99.90;;;;;;5089296;28;20586;-70
2022/11/03 00:15:21;;;;;;;9.53;3.07;;;10.10;99.90;;;;;;5088355;28;20197;-74
2022/11/03 00:17:47;;;;;;;5.10;2.00;;;10.20;99.90;;;;;;5092052;28;20177;-76
2022/11/03 00:20:13;;;;;;;17.07;4.23;;;10.00;99.90;;;;;;5094925;28;20273;-75
2022/11/03 00:22:39;;;;;;;7.63;2.77;;;9.60;99.90;;;;;;5093573;28;20186;-78
2022/11/03 00:25:05;;;;;;;17.57;3.43;;;9.70;99.90;;;;;;5096078;28;20500;-73
2022/11/03 00:27:31;;;;;;;14.87;4.20;;;10.00;99.90;;;;;;5078464;28;20191;-77
2022/11/03 00:29:56;;;;;;;18.63;4.60;;;10.00;99.90;;;;;;5090082;28;20233;-71
2022/11/03 00:32:23;;;;;;;9.80;2.97;;;9.30;99.90;;;;;;5095589;28;20216;-75
2022/11/03 00:34:49;;;;;;;5.60;2.57;;;9.40;99.90;;;;;;5095840;28;20265;-73
2022/11/03 00:37:14;;;;;;;7.23;2.53;;;10.30;99.90;;;;;;5093320;28;20569;-73
2022/11/03 00:39:40;;;;;;;12.70;3.43;;;11.80;99.90;;;;;;5091766;28;20182;-76
2022/11/03 00:42:06;;;;;;;9.93;2.90;;;12.10;99.90;;;;;;5091423;28;20266;-72
2022/11/03 00:44:32;;;;;;;13.20;3.10;;;12.30;99.90;;;;;;5085478;28;20206;-75
2022/11/03 00:46:57;;;;;;;11.13;3.40;;;12.30;99.90;;;;;;5095740;28;20218;-75
2022/11/03 00:49:23;;;;;;;11.40;2.77;;;12.40;99.90;;;;;;5095377;28;20175;-76
2022/11/03 00:51:49;;;;;;;19.43;4.13;;;12.40;99.90;;;;;;5090333;28;20254;-74
2022/11/03 00:54:14;;;;;;;9.47;3.20;;;12.40;99.90;;;;;;5089668;28;20179;-74
2022/11/03 00:56:43;;;;;;;9.93;3.47;;;12.40;99.90;;;;;;5094725;28;20257;-75
2022/11/03 00:59:09;;;;;;;11.83;3.43;;;12.40;99.90;;;;;;5080786;28;20613;-76
2022/11/03 01:01:40;;;;;;;11.07;3.03;;;12.40;99.90;;;;;;5090684;28;20492;-77
2022/11/03 01:06:55;;;;;;;5.70;2.53;;;12.40;99.90;;;;;;5089359;28;20178;-77
2022/11/03 01:09:37;;;;;;;11.70;3.87;;;12.40;99.90;;;;;;5095764;28;20175;-76
2022/11/03 01:12:11;;;;;;;9.43;3.03;;;12.50;99.90;;;;;;5091373;28;20178;-74
2022/11/03 01:14:45;;;;;;;6.07;2.23;;;12.60;99.90;;;;;;5088866;28;20263;-75
2022/11/03 01:17:17;;;;;;;5.90;2.80;;;12.50;99.90;;;;;;5086090;28;20384;-76
2022/11/03 01:19:43;;;;;;;9.20;2.60;;;12.50;99.90;;;;;;5094148;28;20182;-78
2022/11/03 01:22:09;;;;;;;13.63;2.97;;;12.50;99.90;;;;;;5088296;28;20198;-76
2022/11/03 01:24:35;;;;;;;5.83;2.53;;;12.50;99.90;;;;;;5088011;28;20204;-76
2022/11/03 01:27:01;;;;;;;19.33;4.47;;;12.50;99.90;;;;;;5095164;28;20182;-77
2022/11/03 01:29:27;;;;;;;13.87;3.47;;;12.50;99.90;;;;;;5095377;28;20178;-77
2022/11/03 01:31:53;;;;;;;11.83;3.70;;;12.50;99.90;;;;;;5095529;28;20186;-77
2022/11/03 01:34:20;;;;;;;10.17;3.60;;;12.50;99.90;;;;;;5096344;28;20190;-77
2022/11/03 01:36:47;;;;;;;10.73;3.57;;;12.40;99.90;;;;;;5098873;28;20270;-76
2022/11/03 01:39:15;;;;;;;7.70;2.23;;;12.40;99.90;;;;;;5093730;28;20181;-75
2022/11/03 01:41:43;;;;;;;11.30;3.13;;;12.40;99.90;;;;;;5089026;28;20228;-73
2022/11/03 01:44:09;;;;;;;13.53;3.80;;;12.50;99.90;;;;;;5087416;28;20207;-76
2022/11/03 01:47:15;;;;;;;9.33;3.20;;;12.40;99.90;;;;;;5089488;28;20491;-76
2022/11/03 01:49:47;;;;;;;10.13;3.53;;;12.60;99.90;;;;;;5004431;28;20267;-76
2022/11/03 01:52:21;;;;;;;11.00;3.37;;;12.70;99.90;;;;;;5085424;28;20190;-75
2022/11/03 01:54:54;;;;;;;7.50;2.77;;;12.70;99.90;;;;;;5090057;28;20251;-71
2022/11/03 01:57:26;;;;;;;5.83;2.10;;;12.70;99.90;;;;;;5090698;28;20212;-73
2022/11/03 01:59:54;;;;;;;11.90;3.40;;;12.80;99.90;;;;;;5090140;28;20175;-72
2022/11/03 02:02:20;;;;;;;14.17;3.23;;;12.80;99.90;;;;;;5091618;28;20214;-71
2022/11/03 02:04:45;;;;;;;6.23;2.73;;;12.80;99.90;;;;;;5089200;28;20207;-73
2022/11/03 02:07:16;;;;;;;9.47;2.97;;;13.00;99.90;;;;;;5098542;28;20209;-73
2022/11/03 02:09:42;;;;;;;9.80;3.27;;;13.10;99.90;;;;;;5094281;28;20206;-70
2022/11/03 02:12:09;;;;;;;10.30;3.57;;;13.00;99.90;;;;;;5097529;28;20207;-77
2022/11/03 02:14:42;;;;;;;9.83;3.73;;;13.10;99.90;;;;;;5082500;28;20187;-75
2022/11/03 02:17:11;;;;;;;7.87;3.13;;;13.40;99.90;;;;;;5088592;28;20186;-74
2022/11/03 02:19:42;;;;;;;10.63;2.63;;;13.30;99.90;;;;;;5096443;28;20270;-72
2022/11/03 02:22:30;;;;;;;9.83;2.47;;;13.30;99.90;;;;;;5096901;28;20490;-77
2022/11/03 02:25:10;;;;;;;12.27;2.70;;;13.30;99.90;;;;;;5092602;28;20207;-76
2022/11/03 02:27:36;;;;;;;11.63;3.13;;;13.30;99.90;;;;;;5093732;28;20195;-76
2022/11/03 02:30:02;;;;;;;7.97;2.73;;;13.40;99.90;;;;;;5091764;28;20273;-75
2022/11/03 02:32:36;;;;;;;11.07;2.73;;;13.40;99.90;;;;;;5086529;28;20184;-75
2022/11/03 02:35:11;;;;;;;16.33;3.03;;;13.40;99.90;;;;;;5096513;28;20589;-74
2022/11/03 02:37:42;;;;;;;6.90;2.50;;;13.40;99.90;;;;;;5097715;28;20261;-75
2022/11/03 02:40:17;;;;;;;11.27;2.80;;;13.30;99.90;;;;;;5091345;28;20175;-73
2022/11/03 02:42:47;;;;;;;4.63;2.60;;;13.40;99.90;;;;;;5083568;28;20581;-72
2022/11/03 02:45:19;;;;;;;10.67;2.73;;;13.30;99.90;;;;;;5097161;28;20240;-73
2022/11/03 02:47:47;;;;;;;12.93;3.27;;;13.40;99.90;;;;;;5085500;28;20167;-73
2022/11/03 02:50:14;;;;;;;4.83;2.73;;;13.40;99.90;;;;;;5086593;28;20185;-77
2022/11/03 02:52:46;;;;;;;6.80;2.53;;;13.40;99.90;;;;;;5088188;28;20177;-76
2022/11/03 02:55:14;;;;;;;8.17;2.77;;;13.40;99.90;;;;;;5092280;28;20198;-72
2022/11/03 02:57:49;;;;;;;8.47;2.67;;;13.50;99.90;;;;;;5097400;28;20263;-74
2022/11/03 03:00:16;;;;;;;10.07;2.97;;;13.40;99.90;;;;;;5090075;28;20184;-72
2022/11/03 03:03:21;;;;;;;6.50;2.67;;;13.40;99.90;;;;;;5096838;28;20263;-72
2022/11/03 03:05:49;;;;;;;7.03;2.60;;;13.30;99.90;;;;;;5097185;28;20225;-71
2022/11/03 03:08:15;;;;;;;10.83;2.77;;;13.30;99.90;;;;;;5090610;28;20193;-72
2022/11/03 03:10:45;;;;;;;5.93;2.93;;;13.30;99.90;;;;;;5093570;28;20261;-74
2022/11/03 03:13:15;;;;;;;12.33;3.20;;;13.20;99.90;;;;;;5092392;28;20475;-71
2022/11/03 03:15:41;;;;;;;8.33;3.37;;;13.30;99.90;;;;;;5097135;28;20178;-72
2022/11/03 03:18:15;;;;;;;6.83;2.50;;;13.30;99.90;;;;;;5097078;28;20196;-75
2022/11/03 03:20:45;;;;;;;9.83;3.03;;;13.30;99.90;;;;;;5096977;28;20213;-75
2022/11/03 03:23:23;;;;;;;13.03;3.33;;;13.30;99.90;;;;;;5096550;28;20228;-76
2022/11/03 03:26:14;;;;;;;15.27;3.10;;;13.30;99.90;;;;;;5096688;28;20634;-74
2022/11/03 03:28:53;;;;;;;9.33;2.60;;;13.20;99.90;;;;;;5095675;28;20206;-74
2022/11/03 03:31:21;;;;;;;7.03;2.73;;;13.30;99.90;;;;;;5090789;28;20181;-77
2022/11/03 03:33:49;;;;;;;10.67;2.87;;;13.20;99.90;;;;;;5089674;28;20190;-75
2022/11/03 03:36:17;;;;;;;11.30;3.97;;;13.40;99.90;;;;;;5087435;28;20171;-74
2022/11/03 03:38:48;;;;;;;13.57;3.37;;;13.40;99.90;;;;;;5084600;28;20725;-73
2022/11/03 03:41:21;;;;;;;10.47;2.17;;;13.30;99.90;;;;;;5091017;28;20179;-77
2022/11/03 03:43:53;;;;;;;20.23;4.03;;;13.30;99.90;;;;;;5096228;28;20175;-77
2022/11/03 03:46:21;;;;;;;5.90;2.67;;;13.30;99.90;;;;;;5088113;28;20295;-78
2022/11/03 03:48:47;;;;;;;8.37;2.23;;;13.20;99.90;;;;;;5088753;28;20171;-78
2022/11/03 03:51:18;;;;;;;8.83;2.50;;;13.20;99.90;;;;;;5092538;28;20193;-77
2022/11/03 03:53:48;;;;;;;6.67;3.10;;;13.20;99.90;;;;;;5085355;28;20183;-74
2022/11/03 03:56:15;;;;;;;11.83;3.30;;;13.10;99.90;;;;;;5096281;28;20476;-76
2022/11/03 03:58:40;;;;;;;6.80;2.83;;;13.20;99.90;;;;;;5094811;28;20178;-74
2022/11/03 04:01:10;;;;;;;10.17;2.40;;;13.20;99.90;;;;;;5093032;28;20235;-71
2022/11/03 04:03:36;;;;;;;9.40;3.07;;;13.10;99.90;;;;;;5086053;28;20206;-77
2022/11/03 04:06:02;;;;;;;14.70;3.73;;;13.10;99.90;;;;;;5087071;28;20214;-75
2022/11/03 04:08:28;;;;;;;10.07;4.33;;;13.10;99.90;;;;;;5088871;28;20179;-76
2022/11/03 04:22:16;;;;;;;11.37;3.07;;;13.20;99.90;;;;;;5085664;28;20176;-74
2022/11/03 04:24:50;;;;;;;13.43;2.80;;;13.20;99.90;;;;;;5095535;28;20247;-73
2022/11/03 04:27:30;;;;;;;12.57;3.47;;;13.20;99.90;;;;;;5086894;28;20608;-75
2022/11/03 04:30:06;;;;;;;11.37;4.20;;;13.10;99.90;;;;;;5090387;28;20205;-71
2022/11/03 04:32:33;;;;;;;12.67;3.43;;;13.20;99.90;;;;;;5092268;28;20182;-73
2022/11/03 04:34:59;;;;;;;15.50;4.20;;;14.80;99.90;;;;;;5085228;28;20183;-73
2022/11/03 04:37:27;;;;;;;13.77;3.10;;;13.40;99.90;;;;;;5088717;28;20495;-75
2022/11/03 04:40:02;;;;;;;14.80;3.67;;;13.30;99.90;;;;;;5080980;28;20193;-72
2022/11/03 04:42:31;;;;;;;9.93;2.93;;;13.30;99.90;;;;;;5092240;28;20500;-73
2022/11/03 04:45:00;;;;;;;12.17;3.70;;;13.40;99.90;;;;;;5092980;28;20221;-74
2022/11/03 04:47:25;;;;;;;12.03;3.83;;;13.50;99.90;;;;;;5094306;28;20206;-76
2022/11/03 04:49:51;;;;;;;7.40;2.93;;;13.50;99.90;;;;;;5091553;28;20213;-76
2022/11/03 04:52:21;;;;;;;9.80;2.60;;;13.40;99.90;;;;;;5088501;28;20178;-71
2022/11/03 04:54:49;;;;;;;7.97;2.50;;;13.30;99.90;;;;;;5090399;28;20592;-74
2022/11/03 04:57:16;;;;;;;15.07;4.03;;;13.40;99.90;;;;;;5090374;28;20502;-73
2022/11/03 04:59:45;;;;;;;11.13;3.53;;;13.60;99.90;;;;;;5089818;28;20179;-73
2022/11/03 05:02:18;;;;;;;14.77;2.93;;;13.50;99.90;;;;;;5088810;28;20194;-74
2022/11/03 05:04:44;;;;;;;10.00;3.10;;;13.50;99.90;;;;;;5094765;28;20206;-73
2022/11/03 05:07:24;;;;;;;7.43;3.60;;;13.50;99.90;;;;;;5095706;28;20179;-74
2022/11/03 05:09:51;;;;;;;6.90;2.97;;;13.50;99.90;;;;;;5097212;28;20178;-75
2022/11/03 05:12:18;;;;;;;13.60;3.70;;;13.50;99.90;;;;;;5099284;28;20475;-75
2022/11/03 05:14:44;;;;;;;11.47;2.83;;;13.40;99.90;;;;;;5099264;28;20228;-75
2022/11/03 05:17:26;;;;;;;9.07;3.30;;;13.40;99.90;;;;;;5093327;28;20191;-74
2022/11/03 05:20:00;;;;;;;13.93;3.90;;;13.50;99.90;;;;;;5090155;28;20186;-72
2022/11/03 05:22:32;;;;;;;7.17;2.70;;;13.40;99.90;;;;;;5093108;28;20216;-73
2022/11/03 05:25:02;;;;;;;14.23;2.53;;;13.40;99.90;;;;;;5095178;28;20202;-73
2022/11/03 05:27:28;;;;;;;15.00;3.30;;;13.50;99.90;;;;;;5089237;28;20182;-77
2022/11/03 05:29:57;;;;;;;8.10;3.60;;;13.40;99.90;;;;;;5099049;28;20179;-73
2022/11/03 05:32:27;;;;;;;7.83;2.87;;;13.30;99.90;;;;;;5096650;28;20573;-74
2022/11/03 05:34:54;;;;;;;7.53;3.63;;;13.30;99.90;;;;;;5090137;28;20182;-72
2022/11/03 05:37:27;;;;;;;9.57;3.73;;;13.20;99.90;;;;;;5090329;28;20189;-72
2022/11/03 05:39:58;;;;;;;9.20;2.87;;;13.20;99.90;;;;;;5090465;28;20260;-73
2022/11/03 05:42:30;;;;;;;10.67;3.83;;;13.20;99.90;;;;;;5110300;27;20204;-72
2022/11/03 05:44:57;;;;;;;11.10;3.23;;;13.30;99.90;;;;;;5092537;28;20289;-74
2022/11/03 05:47:36;;;;;;;9.67;3.57;;;13.20;99.90;;;;;;5097100;28;20178;-71
2022/11/03 05:50:20;;;;;;;11.27;3.43;;;13.20;99.90;;;;;;5087895;28;20170;-72
2022/11/03 05:52:48;;;;;;;9.77;3.10;;;13.30;99.90;;;;;;5093468;28;20179;-71
2022/11/03 05:55:28;;;;;;;8.77;3.77;;;13.40;99.90;;;;;;5083224;28;20183;-70
2022/11/03 05:57:59;;;;;;;9.90;4.37;;;13.40;99.90;;;;;;5092899;28;20174;-71
2022/11/03 06:00:30;;;;;;;9.67;3.00;;;13.30;99.90;;;;;;5098469;28;20183;-69
2022/11/03 06:02:57;;;;;;;10.83;4.00;;;13.30;99.90;;;;;;5097831;28;20274;-74
2022/11/03 06:05:24;;;;;;;12.57;3.53;;;13.30;99.90;;;;;;5090612;28;20199;-70
2022/11/03 06:07:53;;;;;;;8.00;3.57;;;13.40;99.90;;;;;;5098318;28;20174;-70
2022/11/03 06:10:26;;;;;;;13.60;3.23;;;13.40;99.90;;;;;;5092115;28;20183;-70
2022/11/03 06:12:56;;;;;;;9.30;3.50;;;13.30;99.90;;;;;;5094071;28;20179;-69
2022/11/03 06:15:44;;;;;;;8.57;3.40;;;13.30;99.90;;;;;;5092455;28;20220;-73
2022/11/03 06:18:18;;;;;;;8.97;3.13;;;13.20;99.90;;;;;;5093694;28;20171;-72
2022/11/03 06:20:52;;;;;;;8.50;4.53;;;13.20;99.90;;;;;;5089512;28;20236;-73
2022/11/03 06:23:19;;;;;;;8.47;3.57;;;13.30;99.90;;;;;;5086944;28;20503;-69
2022/11/03 06:25:45;;;;;;;16.57;4.13;;;13.30;99.90;;;;;;5092140;28;20206;-70
2022/11/03 06:28:21;;;;;;;15.80;4.97;;;13.20;99.90;;;;;;5086774;28;20183;-70
2022/11/03 06:30:48;;;;;;;10.33;2.97;;;13.30;99.90;;;;;;5084073;28;20254;-70
2022/11/03 06:33:21;;;;;;;8.23;2.83;;;13.30;99.90;;;;;;5096883;28;20176;-71
2022/11/03 06:35:49;;;;;;;8.87;3.57;;;14.70;99.90;;;;;;5097121;28;20185;-70
2022/11/03 06:38:21;;;;;;;16.30;4.07;;;13.50;99.90;;;;;;5097818;28;20186;-72
2022/11/03 06:40:50;;;;;;;6.57;3.63;;;13.50;99.90;;;;;;5085122;28;20182;-71
2022/11/03 06:43:20;;;;;;;15.13;4.30;;;13.40;99.90;;;;;;5095075;28;20179;-74
2022/11/03 06:45:57;;;;;;;14.23;3.83;;;13.40;99.90;;;;;;5094311;28;20289;-73
2022/11/03 06:48:33;;;;;;;8.43;3.93;;;13.30;99.90;;;;;;5096293;28;20185;-75
2022/11/03 06:51:00;;;;;;;10.50;3.73;;;13.30;99.90;;;;;;5091394;28;20187;-74
2022/11/03 06:53:31;;;;;;;12.47;3.60;;;13.20;99.90;;;;;;5090962;28;20166;-71
2022/11/03 06:55:57;;;;;;;10.50;3.27;;;13.30;99.90;;;;;;5097273;28;20585;-70
2022/11/03 06:58:26;;;;;;;10.00;3.27;;;13.40;99.90;;;;;;5088870;28;20189;-70
2022/11/03 07:00:53;;;;;;;10.60;3.87;;;13.50;99.90;;;;;;5091069;28;20343;-71
2022/11/03 07:03:32;;;;;;;9.53;4.00;;;13.40;99.90;;;;;;5096667;28;20225;-70
2022/11/03 07:06:00;;;;;;;9.77;3.30;;;13.40;99.90;;;;;;5093448;28;20194;-73
2022/11/03 07:08:28;;;;;;;12.47;3.50;;;13.40;99.90;;;;;;5088544;28;20181;-79
2022/11/03 07:11:09;;;;;;;6.63;3.50;;;13.30;99.90;;;;;;5087811;28;20183;-75
2022/11/03 07:13:35;;;;;;;7.97;3.67;;;13.40;99.90;;;;;;5089440;28;20179;-70
2022/11/03 07:16:01;;;;;;;8.00;2.77;;;13.40;99.90;;;;;;5088024;28;20345;-68
2022/11/03 07:18:34;;;;;;;10.57;5.67;;;13.40;99.90;;;;;;5063466;28;20680;-70
2022/11/03 07:21:17;;;;;;;9.03;2.93;;;13.40;99.90;;;;;;5082778;28;20268;-67
2022/11/03 07:23:43;;;;;;;8.20;2.70;;;13.30;99.90;;;;;;5088714;28;20245;-71
2022/11/03 07:26:10;;;;;;;8.77;2.70;;;13.40;99.90;;;;;;5089653;28;20210;-77
2022/11/03 07:28:38;;;;;;;7.17;2.63;;;13.40;99.90;;;;;;5091877;28;20250;-70
2022/11/03 07:31:21;;;;;;;12.87;3.53;;;13.40;99.90;;;;;;5090243;28;20179;-68
2022/11/03 07:33:47;;;;;;;15.43;4.53;;;13.30;99.90;;;;;;5090842;28;20182;-69
2022/11/03 07:36:20;;;;;;;13.30;3.87;;;13.30;99.90;;;;;;5090852;28;20267;-72
2022/11/03 07:38:49;;;;;;;11.80;4.20;;;13.30;99.90;;;;;;5107299;27;20178;-72
2022/11/03 07:41:19;;;;;;;7.67;2.87;;;13.50;99.90;;;;;;5088272;28;20194;-70
2022/11/03 07:43:58;;;;;;;6.33;2.43;;;13.40;99.90;;;;;;5088211;28;20179;-73
2022/11/03 07:46:25;;;;;;;7.23;3.40;;;13.50;99.90;;;;;;5078853;28;20239;-72
2022/11/03 07:48:57;;;;;;;9.37;3.70;;;13.50;99.90;;;;;;5087104;28;20178;-71
2022/11/03 07:51:36;;;;;;;8.27;3.17;;;13.50;99.90;;;;;;5094957;28;20487;-73
2022/11/03 07:54:07;;;;;;;15.87;3.50;;;13.40;99.90;;;;;;5096216;28;20617;-69
2022/11/03 07:56:38;;;;;;;13.60;3.23;;;13.30;99.90;;;;;;5090964;28;20179;-72
2022/11/03 07:59:10;;;;;;;5.07;2.37;;;13.30;99.90;;;;;;5094859;28;20201;-70
2022/11/03 08:01:48;;;;;;;10.73;3.20;;;13.30;99.90;;;;;;5077131;28;20198;-71
2022/11/03 08:04:21;;;;;;;7.47;2.90;;;13.50;99.90;;;;;;5090931;28;20210;-70
2022/11/03 08:06:47;;;;;;;16.80;3.10;;;13.50;99.90;;;;;;5090529;28;20197;-69
2022/11/03 08:09:13;;;;;;;7.40;2.80;;;13.60;99.90;;;;;;5094824;28;20590;-70
2022/11/03 08:11:39;;;;;;;4.40;2.60;;;13.50;99.90;;;;;;5095809;28;20189;-76
2022/11/03 08:14:05;;;;;;;7.00;3.03;;;13.40;99.90;;;;;;5087645;28;20178;-70
2022/11/03 08:16:30;;;;;;;7.47;3.30;;;13.50;99.90;;;;;;5096006;28;20167;-70
2022/11/03 08:18:56;;;;;;;9.77;3.20;;;13.50;99.90;;;;;;5080941;28;20171;-69
2022/11/03 08:21:22;;;;;;;8.77;2.50;;;13.50;99.90;;;;;;5089288;28;20204;-71
2022/11/03 08:23:48;;;;;;;5.87;2.07;;;13.50;99.90;;;;;;5095595;28;20178;-72
2022/11/03 08:26:14;;;;;;;13.10;4.77;;;13.60;99.90;;;;;;5086348;28;20210;-71
2022/11/03 08:28:40;;;;;;;9.07;3.10;;;13.60;99.90;;;;;;5091608;28;20580;-71
2022/11/03 08:31:06;;;;;;;8.57;3.03;;;13.70;99.90;;;;;;5082848;28;20243;-71
2022/11/03 08:33:33;;;;;;;6.10;2.27;;;13.70;99.90;;;;;;5093016;28;20562;-72
2022/11/03 08:36:00;;;;;;;6.67;2.47;;;13.60;99.90;;;;;;5091067;28;20275;-74
2022/11/03 08:38:26;;;;;;;4.23;2.80;;;13.70;99.90;;;;;;5077466;28;20207;-73
2022/11/03 08:40:52;;;;;;;6.87;3.00;;;13.70;99.90;;;;;;5092143;28;20873;-70
2022/11/03 08:43:18;;;;;;;9.73;3.60;;;13.70;99.90;;;;;;5089513;28;20190;-72
2022/11/03 08:45:44;;;;;;;9.63;2.63;;;13.80;99.90;;;;;;5099155;28;20206;-71
2022/11/03 08:48:11;;;;;;;14.43;3.07;;;13.80;99.90;;;;;;5093282;28;20268;-71
2022/11/03 08:50:37;;;;;;;9.43;2.57;;;13.80;99.90;;;;;;5093947;28;20224;-71
2022/11/03 08:53:02;;;;;;;10.60;3.73;;;13.90;99.90;;;;;;5094362;28;20178;-71
2022/11/03 08:55:28;;;;;;;6.70;2.23;;;13.80;99.90;;;;;;5097033;28;20184;-69
2022/11/03 08:57:54;;;;;;;6.40;3.13;;;13.80;99.90;;;;;;5094996;28;20193;-69
2022/11/03 09:00:21;;;;;;;9.40;2.73;;;13.80;99.90;;;;;;5099117;28;20624;-73
2022/11/03 09:02:47;;;;;;;10.23;3.30;;;13.80;99.90;;;;;;5088896;28;20210;-70
2022/11/03 09:05:14;;;;;;;7.60;3.60;;;13.80;99.90;;;;;;5093574;28;20210;-70
2022/11/03 09:07:41;;;;;;;9.33;4.23;;;13.80;99.90;;;;;;5099234;28;20179;-70
2022/11/03 09:10:09;;;;;;;5.77;3.03;;;13.70;99.90;;;;;;5094854;28;20198;-69
2022/11/03 09:12:36;;;;;;;7.90;3.50;;;13.80;99.90;;;;;;5091396;28;20502;-71
2022/11/03 09:15:02;;;;;;;3.73;2.47;;;13.80;99.90;;;;;;5094209;28;20178;-72
2022/11/03 09:17:28;;;;;;;7.27;3.57;;;13.90;99.90;;;;;;5091865;28;20502;-70
2022/11/03 09:19:54;;;;;;;4.03;2.60;;;13.90;99.90;;;;;;5098368;28;20175;-70
2022/11/03 09:22:20;;;;;;;9.17;2.47;;;14.00;99.90;;;;;;5089070;28;20187;-73
2022/11/03 09:24:46;;;;;;;6.53;2.80;;;14.10;99.90;;;;;;5098159;28;20212;-71
2022/11/03 09:27:13;;;;;;;15.63;3.80;;;14.00;99.90;;;;;;5098956;28;20183;-71
2022/11/03 09:29:38;;;;;;;6.00;2.73;;;14.10;99.90;;;;;;5098661;28;20228;-70
2022/11/03 09:32:05;;;;;;;7.63;3.07;;;14.00;99.90;;;;;;5094701;28;20484;-71
2022/11/03 09:34:31;;;;;;;8.50;3.33;;;14.00;99.90;;;;;;5081058;28;20214;-70
2022/11/03 09:36:57;;;;;;;20.63;3.87;;;14.00;99.90;;;;;;5090951;28;20178;-73
2022/11/03 09:39:22;;;;;;;13.60;3.53;;;13.90;99.90;;;;;;5091987;28;20240;-72
2022/11/03 09:41:49;;;;;;;5.27;2.13;;;13.90;99.90;;;;;;5096208;28;20177;-73
2022/11/03 09:44:15;;;;;;;16.00;3.10;;;14.30;99.90;;;;;;5096623;28;20263;-72
2022/11/03 09:46:41;;;;;;;5.63;2.27;;;14.50;99.90;;;;;;5091826;28;20271;-73
2022/11/03 09:49:07;;;;;;;5.90;2.47;;;14.50;99.90;;;;;;5096140;28;20236;-72
2022/11/03 09:51:35;;;;;;;5.37;2.20;;;14.50;99.90;;;;;;5086565;28;20192;-72
2022/11/03 09:54:03;;;;;;;7.27;2.73;;;14.30;99.90;;;;;;5098273;28;20183;-72
2022/11/03 09:56:30;;;;;;;11.90;3.30;;;12.80;99.90;;;;;;5096980;28;20235;-70
2022/11/03 09:58:55;;;;;;;6.60;3.13;;;12.80;99.90;;;;;;5093168;28;20183;-73
2022/11/03 10:01:22;;;;;;;8.23;4.17;;;12.70;99.90;;;;;;5086288;28;20333;-69
2022/11/03 10:03:48;;;;;;;3.20;1.77;;;13.10;99.90;;;;;;5098118;28;20293;-69
2022/11/03 10:06:16;;;;;;;5.90;2.97;;;13.00;99.90;;;;;;5085977;28;20293;-70
2022/11/03 10:08:44;;;;;;;4.37;2.70;;;12.40;99.90;;;;;;5085792;28;20186;-71
2022/11/03 10:11:10;;;;;;;6.90;1.40;;;12.50;99.90;;;;;;5089910;28;20193;-69
2022/11/03 10:13:40;;;;;;;5.33;2.57;;;12.30;99.90;;;;;;5091907;28;20170;-68
2022/11/03 10:16:13;;;;;;;7.17;2.50;;;12.30;99.90;;;;;;5093334;28;20190;-73
2022/11/03 10:18:39;;;;;;;8.53;3.27;;;12.30;99.90;;;;;;5084753;28;20217;-68
2022/11/03 10:21:14;;;;;;;8.03;2.47;;;9.70;99.90;;;;;;5092967;28;20552;-68
2022/11/03 10:23:39;;;;;;;7.50;3.47;;;-0.40;99.90;;;;;;5090907;28;20182;-71
2022/11/03 10:26:11;;;;;;;8.37;2.63;;;0.10;99.90;;;;;;5095207;28;20190;-68
2022/11/03 10:28:36;;;;;;;5.20;2.47;;;15.20;99.90;;;;;;5085222;28;20648;-70
2022/11/03 10:31:07;;;;;;;6.33;2.53;;;15.30;99.90;;;;;;5097008;28;20187;-68
2022/11/03 10:33:39;;;;;;;5.60;2.63;;;15.40;99.90;;;;;;5097103;28;20265;-70
2022/11/03 10:36:14;;;;;;;10.30;2.97;;;15.40;99.90;;;;;;5095159;28;20190;-70
2022/11/03 10:38:42;;;;;;;10.23;2.43;;;15.50;99.90;;;;;;5096811;28;20656;-73
2022/11/03 10:41:10;;;;;;;8.50;2.33;;;15.40;99.90;;;;;;5096976;28;20299;-73
2022/11/03 10:43:38;;;;;;;7.63;2.10;;;15.50;99.90;;;;;;5096493;28;20358;-73
2022/11/03 10:46:23;;;;;;;7.17;2.97;;;15.40;99.90;;;;;;5086839;28;20617;-74
2022/11/03 10:49:12;;;;;;;3.10;1.90;;;15.40;99.90;;;;;;5090061;28;20465;-73
2022/11/03 10:51:39;;;;;;;4.50;2.53;;;15.50;99.90;;;;;;5090544;28;20183;-73
2022/11/03 10:54:09;;;;;;;2.37;1.70;;;15.50;99.90;;;;;;5094912;28;20472;-73
2022/11/03 10:56:35;;;;;;;5.77;1.97;;;15.60;99.90;;;;;;5087045;28;20183;-81
2022/11/03 10:59:02;;;;;;;4.60;1.87;;;15.50;99.90;;;;;;5090459;28;20822;-76
2022/11/03 11:01:27;;;;;;;6.47;1.90;;;15.50;99.90;;;;;;5090482;28;20265;-73
2022/11/03 11:03:54;;;;;;;6.07;2.00;;;15.50;99.90;;;;;;5090854;28;20289;-73
2022/11/03 11:06:28;;;;;;;12.80;3.00;;;15.60;99.90;;;;;;5090090;28;20206;-69
2022/11/03 11:09:00;;;;;;;3.07;2.23;;;15.40;99.90;;;;;;5095322;28;20539;-69
2022/11/03 11:11:26;;;;;;;2.57;1.60;;;15.60;99.90;;;;;;5090435;28;20187;-69
2022/11/03 11:14:35;;;;;;;8.17;1.97;;;15.60;99.90;;;;;;5095855;28;20191;-69
2022/11/03 11:17:03;;;;;;;5.93;2.67;;;15.70;99.90;;;;;;5000992;28;20197;-72
2022/11/03 11:19:34;;;;;;;3.87;2.23;;;15.80;99.90;;;;;;5008064;28;20216;-71
2022/11/03 11:22:01;;;;;;;9.67;2.13;;;15.80;99.90;;;;;;5058255;28;20190;-71
2022/11/03 11:24:50;;;;;;;2.43;1.53;;;15.80;99.90;;;;;;5095700;28;20208;-70
2022/11/03 11:27:30;;;;;;;4.63;2.30;;;15.90;99.90;;;;;;5080124;28;20197;-70
2022/11/03 11:30:00;;;;;;;6.47;1.53;;;15.90;99.90;;;;;;5095764;28;20182;-69
2022/11/03 11:32:35;;;;;;;5.33;2.10;;;-9.30;99.90;;;;;;5083795;28;20259;-69
2022/11/03 11:35:01;;;;;;;7.57;2.70;;;-12.50;99.90;;;;;;5095532;28;20190;-69
2022/11/03 11:37:27;;;;;;;5.07;1.80;;;-8.40;99.90;;;;;;5095842;28;20191;-72
2022/11/03 11:39:53;;;;;;;3.70;2.23;;;-7.20;99.90;;;;;;5091518;28;20187;-70
2022/11/03 11:42:20;;;;;;;5.50;1.97;;;-11.50;99.90;;;;;;5081773;28;20605;-71
2022/11/03 11:44:53;;;;;;;6.90;2.13;;;-10.40;99.90;;;;;;5087932;28;20205;-71
2022/11/03 11:47:31;;;;;;;6.53;3.10;;;-6.60;99.90;;;;;;5090060;28;20194;-71
2022/11/03 11:50:20;;;;;;;1.57;1.43;;;-7.70;99.90;;;;;;5084768;28;20650;-71
2022/11/03 11:52:56;;;;;;;5.90;1.73;;;-7.90;99.90;;;;;;5079536;28;20184;-70
2022/11/03 11:55:37;;;;;;;5.07;1.60;;;-4.50;99.90;;;;;;5089782;28;20186;-70
2022/11/03 11:58:10;;;;;;;7.70;2.97;;;-4.60;99.90;;;;;;5095488;28;20279;-70
2022/11/03 12:00:36;;;;;;;8.63;1.70;;;-2.80;99.90;;;;;;5088042;28;20187;-71
2022/11/03 12:03:05;;;;;;;3.10;1.83;;;-2.70;99.90;;;;;;5092017;28;20226;-74
2022/11/03 12:05:33;;;;;;;3.37;2.13;;;-2.50;99.90;;;;;;5090232;28;20202;-73
2022/11/03 12:07:59;;;;;;;7.83;1.73;;;-3.20;99.90;;;;;;5094714;28;20202;-74
2022/11/03 12:10:30;;;;;;;7.70;4.47;;;-3.90;99.90;;;;;;5087955;28;20597;-71
2022/11/03 12:12:58;;;;;;;12.17;4.10;;;-5.00;99.90;;;;;;5090330;28;20552;-74
2022/11/03 12:15:58;;;;;;;4.80;2.00;;;-3.10;99.90;;;;;;5095514;28;20600;-70
2022/11/03 12:18:42;;;;;;;3.53;2.03;;;-3.50;99.90;;;;;;5092855;28;20179;-70
2022/11/03 12:21:44;;;;;;;1.97;1.50;;;-5.10;99.90;;;;;;5093107;28;20597;-73
2022/11/03 12:24:31;;;;;;;2.00;1.33;;;-6.10;99.90;;;;;;5092742;28;20181;-73
2022/11/03 12:27:00;;;;;;;6.90;1.90;;;-7.40;99.90;;;;;;5092407;28;20190;-71
2022/11/03 12:29:26;;;;;;;4.20;1.20;;;-3.00;99.90;;;;;;5084281;28;20190;-76
2022/11/03 12:31:52;;;;;;;2.57;1.80;;;-2.20;99.90;;;;;;5087746;28;20182;-72
2022/11/03 12:34:18;;;;;;;10.80;2.43;;;-5.50;99.90;;;;;;5084212;28;20495;-69
2022/11/03 12:36:44;;;;;;;4.90;1.60;;;-3.80;99.90;;;;;;5088625;28;20183;-73
2022/11/03 12:39:11;;;;;;;9.00;2.67;;;-3.20;99.90;;;;;;5092787;28;20182;-72
2022/11/03 12:41:37;;;;;;;7.43;2.10;;;-6.50;99.90;;;;;;5095131;28;20179;-70
2022/11/03 12:44:03;;;;;;;7.40;2.97;;;-4.10;99.90;;;;;;5086007;28;20625;-70
2022/11/03 12:46:28;;;;;;;7.70;2.97;;;-3.10;99.90;;;;;;5085651;28;20215;-71
2022/11/03 12:48:54;;;;;;;5.33;2.23;;;-2.10;99.90;;;;;;5092342;28;20587;-72
2022/11/03 12:51:22;;;;;;;6.30;2.30;;;-1.50;99.90;;;;;;5090972;28;20186;-74
2022/11/03 12:53:49;;;;;;;4.60;2.80;;;-0.80;99.90;;;;;;5095389;28;20186;-71
2022/11/03 12:56:16;;;;;;;7.63;2.97;;;-0.70;99.90;;;;;;5090207;28;20214;-73
2022/11/03 12:58:41;;;;;;;5.90;2.90;;;-0.70;99.90;;;;;;5094533;28;20261;-73
2022/11/03 13:01:08;;;;;;;6.77;3.10;;;0.20;99.90;;;;;;5079980;28;20602;-75
2022/11/03 13:03:34;;;;;;;5.23;2.90;;;0.20;99.90;;;;;;5085940;28;20210;-74
2022/11/03 13:06:03;;;;;;;6.37;3.50;;;9.80;99.90;;;;;;5090364;28;20266;-71
2022/11/03 13:08:29;;;;;;;10.43;3.10;;;10.20;99.90;;;;;;5094392;28;20578;-72
2022/11/03 13:10:56;;;;;;;10.43;3.03;;;10.50;99.90;;;;;;5092067;28;20179;-73
2022/11/03 13:13:22;;;;;;;15.23;3.37;;;10.50;99.90;;;;;;5089880;28;20266;-75